createdAt,value
2023-05-14T00:02:14.426Z,17.42
2023-05-14T00:04:41.711Z,16.85
2023-05-14T00:07:08.894Z,18.20
2023-05-14T00:09:36.137Z,20.45
2023-05-14T00:12:03.376Z,14.93
2023-05-14T00:14:30.562Z,24.38
2023-05-14T00:16:58.250Z,18.63
2023-05-14T00:19:25.394Z,15.88
2023-05-14T00:21:52.751Z,22.38
2023-05-14T00:24:19.934Z,19.33
2023-05-14T00:26:47.139Z,15.35
2023-05-14T00:29:14.247Z,21.55
2023-05-14T00:31:41.416Z,10.70
2023-05-14T00:34:08.550Z,18.92
2023-05-14T00:36:35.672Z,15.43
2023-05-14T00:39:03.676Z,20.73
2023-05-14T00:41:30.837Z,20.20
2023-05-14T00:43:57.940Z,19.48
2023-05-14T00:46:25.081Z,22.38
2023-05-14T00:48:52.464Z,20.90
2023-05-14T00:51:19.616Z,17.38
2023-05-14T00:53:47.107Z,17.42
2023-05-14T00:56:14.764Z,20.83
2023-05-14T00:58:41.854Z,17.95
2023-05-14T01:01:09.277Z,19.60
2023-05-14T01:03:36.796Z,21.50
2023-05-14T01:06:18.066Z,18.50
2023-05-14T01:08:45.144Z,18.17
2023-05-14T01:11:19.083Z,22.92
2023-05-14T01:14:04.697Z,19.85
2023-05-14T01:16:34.161Z,21.13
2023-05-14T01:19:01.995Z,19.50
2023-05-14T01:21:46.996Z,21.17
2023-05-14T01:24:14.072Z,19.92
2023-05-14T01:26:41.253Z,21.10
2023-05-14T01:29:22.133Z,22.63
2023-05-14T01:31:50.588Z,19.20
2023-05-14T01:34:20.749Z,20.42
2023-05-14T01:36:48.150Z,19.70
2023-05-14T01:39:15.591Z,23.45
2023-05-14T01:41:43.035Z,20.77
2023-05-14T01:44:10.463Z,28.30
2023-05-14T01:46:37.988Z,21.45
2023-05-14T01:49:05.270Z,18.80
2023-05-14T01:51:32.409Z,20.35
2023-05-14T01:53:59.544Z,16.55
2023-05-14T01:56:27.066Z,22.85
2023-05-14T01:58:55.621Z,24.17
2023-05-14T02:01:23.044Z,24.90
2023-05-14T02:03:50.415Z,19.80
2023-05-14T02:06:17.633Z,23.33
2023-05-14T02:08:44.781Z,20.75
2023-05-14T02:11:11.880Z,21.55
2023-05-14T02:13:39.006Z,22.08
2023-05-14T02:16:06.411Z,19.27
2023-05-14T02:18:33.620Z,21.08
2023-05-14T02:21:00.760Z,20.05
2023-05-14T02:23:34.460Z,21.90
2023-05-14T02:26:05.429Z,23.42
2023-05-14T02:28:32.564Z,25.70
2023-05-14T02:31:02.714Z,22.55
2023-05-14T02:33:30.150Z,25.17
2023-05-14T02:35:57.454Z,24.48
2023-05-14T02:38:24.621Z,22.13
2023-05-14T02:40:51.826Z,20.75
2023-05-14T02:43:18.981Z,24.08
2023-05-14T02:45:46.160Z,22.85
2023-05-14T02:48:13.380Z,23.08
2023-05-14T02:50:40.672Z,22.98
2023-05-14T02:53:08.661Z,26.25
2023-05-14T02:55:36.374Z,24.70
2023-05-14T02:58:03.516Z,21.63
2023-05-14T03:00:30.790Z,23.17
2023-05-14T03:02:59.803Z,27.55
2023-05-14T03:05:27.324Z,21.27
2023-05-14T03:07:54.802Z,23.27
2023-05-14T03:10:22.128Z,23.80
2023-05-14T03:12:49.652Z,23.92
2023-05-14T03:15:16.822Z,22.80
2023-05-14T03:17:44.084Z,23.05
2023-05-14T03:20:11.586Z,22.35
2023-05-14T03:22:38.768Z,25.70
2023-05-14T03:25:06.052Z,24.92
2023-05-14T03:27:33.690Z,26.08
2023-05-14T03:30:03.238Z,23.67
2023-05-14T03:32:30.738Z,24.80
2023-05-14T03:34:57.869Z,23.67
2023-05-14T03:37:25.915Z,21.90
2023-05-14T03:39:53.022Z,23.73
2023-05-14T03:42:20.095Z,22.67
2023-05-14T03:44:47.204Z,23.38
2023-05-14T03:47:14.307Z,23.38
2023-05-14T03:49:41.490Z,24.23
2023-05-14T03:52:08.642Z,22.38
2023-05-14T03:54:35.798Z,25.02
2023-05-14T03:57:03.047Z,22.52
2023-05-14T03:59:30.437Z,24.17
2023-05-14T04:01:57.566Z,23.33
2023-05-14T04:04:24.790Z,21.10
2023-05-14T04:06:52.045Z,21.85
2023-05-14T04:09:19.204Z,21.83
2023-05-14T04:11:46.603Z,24.08
2023-05-14T04:14:13.746Z,26.38
2023-05-14T04:16:40.934Z,24.08
2023-05-14T04:19:10.224Z,24.77
2023-05-14T04:21:37.454Z,22.42
2023-05-14T04:24:04.654Z,23.08
2023-05-14T04:26:31.968Z,23.08
2023-05-14T04:29:02.881Z,19.63
2023-05-14T04:31:31.606Z,21.23
2023-05-14T04:33:58.809Z,23.50
2023-05-14T04:36:26.307Z,20.60
2023-05-14T04:38:53.591Z,18.63
2023-05-14T04:41:21.139Z,22.52
2023-05-14T04:43:50.286Z,21.73
2023-05-14T04:46:17.456Z,19.38
2023-05-14T04:48:44.601Z,20.55
2023-05-14T04:51:11.709Z,21.90
2023-05-14T04:53:38.836Z,19.95
2023-05-14T04:56:06.569Z,23.10
2023-05-14T04:58:34.750Z,21.92
2023-05-14T05:03:30.129Z,17.08
2023-05-14T05:05:57.397Z,17.70
2023-05-14T05:08:24.602Z,17.23
2023-05-14T05:10:51.721Z,16.48
2023-05-14T05:13:18.984Z,16.95
2023-05-14T05:15:46.308Z,12.18
2023-05-14T05:18:13.527Z,16.83
2023-05-14T05:20:40.879Z,16.45
2023-05-14T05:23:08.023Z,18.40
2023-05-14T05:25:35.258Z,16.40
2023-05-14T05:28:02.449Z,13.70
2023-05-14T05:30:30.311Z,17.60
2023-05-14T05:32:57.693Z,15.23
2023-05-14T05:35:24.960Z,15.15
2023-05-14T05:37:52.086Z,16.45
2023-05-14T05:40:19.328Z,18.15
2023-05-14T05:42:46.469Z,14.35
2023-05-14T05:45:13.675Z,14.07
2023-05-14T05:47:40.912Z,13.15
2023-05-14T05:50:09.818Z,12.95
2023-05-14T05:52:37.032Z,16.63
2023-05-14T05:55:04.307Z,12.20
2023-05-14T05:57:31.466Z,13.48
2023-05-14T05:59:58.595Z,15.02
2023-05-14T06:02:26.043Z,11.52
2023-05-14T06:04:53.411Z,13.85
2023-05-14T06:07:21.110Z,10.85
2023-05-14T06:09:48.282Z,12.68
2023-05-14T06:12:15.467Z,12.38
2023-05-14T06:14:42.541Z,8.40
2023-05-14T06:17:09.658Z,11.60
2023-05-14T06:22:05.152Z,11.20
2023-05-14T06:24:32.975Z,11.20
2023-05-14T06:27:00.287Z,12.25
2023-05-14T06:29:27.415Z,11.68
2023-05-14T06:31:54.593Z,11.93
2023-05-14T06:34:21.733Z,11.07
2023-05-14T06:36:49.139Z,12.02
2023-05-14T06:39:16.330Z,12.68
2023-05-14T06:41:43.478Z,11.77
2023-05-14T06:44:11.051Z,9.80
2023-05-14T06:46:38.208Z,14.20
2023-05-14T06:49:05.566Z,9.27
2023-05-14T06:51:32.767Z,8.63
2023-05-14T06:53:59.914Z,9.40
2023-05-14T06:56:27.031Z,12.45
2023-05-14T06:58:54.113Z,12.50
2023-05-14T07:01:21.242Z,10.57
2023-05-14T07:03:48.468Z,12.90
2023-05-14T07:06:15.868Z,10.75
2023-05-14T07:08:45.870Z,12.50
2023-05-14T07:11:13.525Z,12.60
2023-05-14T07:13:41.165Z,9.43
2023-05-14T07:16:11.842Z,14.27
2023-05-14T07:18:39.631Z,11.32
2023-05-14T07:21:06.939Z,10.65
2023-05-14T07:23:36.624Z,10.77
2023-05-14T07:26:04.634Z,10.43
2023-05-14T07:28:31.944Z,10.25
2023-05-14T07:30:59.516Z,12.07
2023-05-14T07:33:27.103Z,10.02
2023-05-14T07:35:54.433Z,10.65
2023-05-14T07:38:21.721Z,12.20
2023-05-14T07:40:48.857Z,13.60
2023-05-14T07:43:16.033Z,11.30
2023-05-14T07:45:43.445Z,10.50
2023-05-14T07:48:11.304Z,12.98
2023-05-14T07:50:38.653Z,10.98
2023-05-14T07:53:05.782Z,11.75
2023-05-14T07:55:32.930Z,10.65
2023-05-14T07:58:00.171Z,9.68
2023-05-14T08:00:27.484Z,9.90
2023-05-14T08:02:55.789Z,9.85
2023-05-14T08:05:23.237Z,10.75
2023-05-14T08:07:50.364Z,11.35
2023-05-14T08:10:17.467Z,11.75
2023-05-14T08:12:44.585Z,9.73
2023-05-14T08:15:11.796Z,11.05
2023-05-14T08:18:03.502Z,9.05
2023-05-14T08:20:31.549Z,11.68
2023-05-14T08:22:58.778Z,9.98
2023-05-14T08:25:25.936Z,9.93
2023-05-14T08:27:54.262Z,10.90
2023-05-14T08:30:22.849Z,8.32
2023-05-14T08:32:50.486Z,11.25
2023-05-14T08:35:20.848Z,12.23
2023-05-14T08:37:48.030Z,8.52
2023-05-14T08:40:15.673Z,8.07
2023-05-14T08:42:44.887Z,14.18
2023-05-14T08:45:22.618Z,11.05
2023-05-14T08:47:50.845Z,8.35
2023-05-14T08:50:21.896Z,8.65
2023-05-14T08:52:50.376Z,8.40
2023-05-14T08:55:17.498Z,9.85
2023-05-14T08:57:44.631Z,7.72
2023-05-14T09:00:12.129Z,9.45
2023-05-14T09:02:40.595Z,9.38
2023-05-14T09:05:09.224Z,8.63
2023-05-14T09:07:36.480Z,8.02
2023-05-14T09:10:04.082Z,11.65
2023-05-14T09:12:31.565Z,8.48
2023-05-14T09:14:58.675Z,12.38
2023-05-14T09:17:27.880Z,8.90
2023-05-14T09:19:55.172Z,8.57
2023-05-14T09:22:22.502Z,8.77
2023-05-14T09:25:02.897Z,9.18
2023-05-14T09:27:31.709Z,7.38
2023-05-14T09:30:05.822Z,9.38
2023-05-14T09:32:36.501Z,9.15
2023-05-14T09:35:10.423Z,11.02
2023-05-14T09:37:37.797Z,9.48
2023-05-14T09:40:11.861Z,9.23
2023-05-14T09:42:39.177Z,10.40
2023-05-14T09:45:07.812Z,9.55
2023-05-14T09:47:35.082Z,9.13
2023-05-14T09:50:02.381Z,9.25
2023-05-14T09:52:29.483Z,9.43
2023-05-14T09:54:56.930Z,10.25
2023-05-14T09:57:24.189Z,8.85
2023-05-14T09:59:51.346Z,7.90
2023-05-14T10:02:33.822Z,10.43
2023-05-14T10:05:03.304Z,10.15
2023-05-14T10:07:33.969Z,8.55
2023-05-14T10:10:03.588Z,10.20
2023-05-14T10:12:34.474Z,9.50
2023-05-14T10:15:07.606Z,8.60
2023-05-14T10:17:35.831Z,11.60
2023-05-14T10:22:32.430Z,10.93
2023-05-14T10:24:59.940Z,9.10
2023-05-14T10:27:27.378Z,8.32
2023-05-14T10:29:55.138Z,11.55
2023-05-14T10:32:25.150Z,11.07
2023-05-14T10:34:53.271Z,11.25
2023-05-14T10:37:22.672Z,9.38
2023-05-14T10:39:56.435Z,9.20
2023-05-14T10:42:27.543Z,6.65
2023-05-14T10:44:58.008Z,7.85
2023-05-14T10:47:31.880Z,10.85
2023-05-14T10:49:59.937Z,8.88
2023-05-14T10:52:27.508Z,7.22
2023-05-14T10:54:56.180Z,11.90
2023-05-14T10:57:24.300Z,7.97
2023-05-14T11:02:24.858Z,9.80
2023-05-14T11:05:06.415Z,9.50
2023-05-14T11:07:35.141Z,7.50
2023-05-14T11:10:02.369Z,9.95
2023-05-14T11:12:29.839Z,8.02
2023-05-14T11:14:58.157Z,9.55
2023-05-14T11:17:26.389Z,8.27
2023-05-14T11:19:53.578Z,9.35
2023-05-14T11:22:20.962Z,7.97
2023-05-14T11:24:48.165Z,9.10
2023-05-14T11:27:15.979Z,7.28
2023-05-14T11:29:46.874Z,9.75
2023-05-14T11:32:14.594Z,6.40
2023-05-14T11:34:42.897Z,9.38
2023-05-14T11:37:10.788Z,13.63
2023-05-14T11:39:38.044Z,8.18
2023-05-14T11:42:12.377Z,9.45
2023-05-14T11:44:39.710Z,8.27
2023-05-14T11:47:07.074Z,8.27
2023-05-14T11:49:37.798Z,9.77
2023-05-14T11:52:06.399Z,8.52
2023-05-14T11:54:34.775Z,8.32
2023-05-14T11:57:03.943Z,10.55
2023-05-14T11:59:34.091Z,7.20
2023-05-14T12:02:02.302Z,10.23
2023-05-14T12:04:29.575Z,11.38
2023-05-14T12:06:58.359Z,9.65
2023-05-14T12:09:25.570Z,7.63
2023-05-14T12:11:52.989Z,11.98
2023-05-14T12:14:21.255Z,9.25
2023-05-14T12:16:48.575Z,9.63
2023-05-14T12:19:16.661Z,8.88
2023-05-14T12:24:14.890Z,9.98
2023-05-14T12:26:45.842Z,10.43
2023-05-14T12:29:14.135Z,8.63
2023-05-14T12:31:48.036Z,8.48
2023-05-14T12:34:15.867Z,7.40
2023-05-14T12:36:43.291Z,6.80
2023-05-14T12:39:10.690Z,10.20
2023-05-14T12:41:37.920Z,8.35
2023-05-14T12:44:05.484Z,8.52
2023-05-14T12:46:34.057Z,8.95
2023-05-14T12:49:01.245Z,8.95
2023-05-14T12:51:28.559Z,7.70
2023-05-14T12:53:55.707Z,7.88
2023-05-14T12:56:27.746Z,8.25
2023-05-14T12:58:57.951Z,12.68
2023-05-14T13:01:25.164Z,7.38
2023-05-14T13:03:52.382Z,7.63
2023-05-14T13:06:19.676Z,6.45
2023-05-14T13:08:46.873Z,8.98
2023-05-14T13:11:14.123Z,9.20
2023-05-14T13:13:41.315Z,8.50
2023-05-14T13:16:08.642Z,7.25
2023-05-14T13:18:35.974Z,11.50
2023-05-14T13:21:06.278Z,10.18
2023-05-14T13:23:33.801Z,8.55
2023-05-14T13:26:01.106Z,9.82
2023-05-14T13:28:28.319Z,8.60
2023-05-14T13:31:08.129Z,10.27
2023-05-14T13:33:36.514Z,8.48
2023-05-14T13:36:04.123Z,10.50
2023-05-14T13:38:31.396Z,9.30
2023-05-14T13:41:02.234Z,10.15
2023-05-14T13:43:30.128Z,9.45
2023-05-14T13:45:57.548Z,7.60
2023-05-14T13:48:25.470Z,7.63
2023-05-14T13:50:52.684Z,8.65
2023-05-14T13:53:20.547Z,7.55
2023-05-14T13:55:49.181Z,8.50
2023-05-14T13:58:16.982Z,7.45
2023-05-14T14:00:44.158Z,9.93
2023-05-14T14:03:11.388Z,6.90
2023-05-14T14:05:38.682Z,8.35
2023-05-14T14:08:21.841Z,9.27
2023-05-14T14:10:49.656Z,9.60
2023-05-14T14:13:17.009Z,8.05
2023-05-14T14:15:44.385Z,9.38
2023-05-14T14:18:11.785Z,8.23
2023-05-14T14:20:39.103Z,6.70
2023-05-14T14:23:06.489Z,7.90
2023-05-14T14:25:33.781Z,9.85
2023-05-14T14:28:01.114Z,6.50
2023-05-14T14:30:28.309Z,7.10
2023-05-14T14:32:55.618Z,7.30
2023-05-14T14:35:23.076Z,9.15
2023-05-14T14:37:53.302Z,9.65
2023-05-14T14:40:20.532Z,8.25
2023-05-14T14:42:47.721Z,9.70
2023-05-14T14:45:14.893Z,6.40
2023-05-14T14:47:46.277Z,6.88
2023-05-14T14:50:13.973Z,8.98
2023-05-14T14:52:45.414Z,7.72
2023-05-14T14:55:13.255Z,9.02
2023-05-14T14:57:40.384Z,8.65
2023-05-14T15:00:07.944Z,6.70
2023-05-14T15:02:35.403Z,9.93
2023-05-14T15:05:02.660Z,10.18
2023-05-14T15:07:32.857Z,9.43
2023-05-14T15:10:00.240Z,8.88
2023-05-14T15:12:27.527Z,6.72
2023-05-14T15:14:54.655Z,8.13
2023-05-14T15:17:22.674Z,7.05
2023-05-14T15:19:49.809Z,8.95
2023-05-14T15:22:17.015Z,9.10
2023-05-14T15:24:44.197Z,15.32
2023-05-14T15:27:11.514Z,10.90
2023-05-14T15:29:38.798Z,8.65
2023-05-14T15:32:06.210Z,8.30
2023-05-14T15:34:33.391Z,10.63
2023-05-14T15:37:00.535Z,9.40
2023-05-14T15:39:29.578Z,7.00
2023-05-14T15:41:57.399Z,8.75
2023-05-14T15:45:02.195Z,8.95
2023-05-14T15:49:56.535Z,6.97
2023-05-14T15:52:23.731Z,7.40
2023-05-14T15:58:13.797Z,7.45
2023-05-14T16:00:40.966Z,7.85
2023-05-14T16:03:08.255Z,7.07
2023-05-14T16:05:35.793Z,10.68
2023-05-14T16:08:03.658Z,8.85
2023-05-14T16:10:30.799Z,8.85
2023-05-14T16:12:58.137Z,6.68
2023-05-14T16:15:26.497Z,7.93
2023-05-14T16:17:53.699Z,7.72
2023-05-14T16:20:20.888Z,6.95
2023-05-14T16:22:48.136Z,6.22
2023-05-14T16:25:16.009Z,6.38
2023-05-14T16:27:43.861Z,6.82
2023-05-14T16:30:11.314Z,8.02
2023-05-14T16:35:20.252Z,6.70
2023-05-14T16:40:28.933Z,5.80
2023-05-14T16:42:56.245Z,7.50
2023-05-14T16:45:23.856Z,7.90
2023-05-14T16:47:51.368Z,24.38
2023-05-14T16:50:19.386Z,42.38
2023-05-14T16:52:46.606Z,22.10
2023-05-14T16:55:13.816Z,44.42
2023-05-14T16:57:41.049Z,9.93
2023-05-14T17:00:09.417Z,12.88
2023-05-14T17:02:36.711Z,22.75
2023-05-14T17:05:04.169Z,8.60
2023-05-14T17:10:20.860Z,8.25
2023-05-14T17:12:48.027Z,8.50
2023-05-14T17:15:15.933Z,19.30
2023-05-14T17:17:43.272Z,9.07
2023-05-14T17:20:10.722Z,7.65
2023-05-14T17:22:37.916Z,13.43
2023-05-14T17:25:05.543Z,16.25
2023-05-14T17:27:33.337Z,9.95
2023-05-14T17:30:01.282Z,10.85
2023-05-14T17:32:29.597Z,14.65
2023-05-14T17:37:26.347Z,17.55
2023-05-14T17:39:54.708Z,8.35
2023-05-14T17:44:48.959Z,11.57
2023-05-14T17:47:16.277Z,12.68
2023-05-14T17:49:43.669Z,9.15
2023-05-14T17:52:10.964Z,7.72
2023-05-14T17:54:38.201Z,15.85
2023-05-14T17:57:05.757Z,11.93
2023-05-14T17:59:32.995Z,15.70
2023-05-14T18:02:00.214Z,16.42
2023-05-14T18:04:27.343Z,18.20
2023-05-14T18:06:54.540Z,16.80
2023-05-14T18:09:22.011Z,14.18
2023-05-14T18:11:49.192Z,13.07
2023-05-14T18:14:17.581Z,9.43
2023-05-14T18:19:11.990Z,16.27
2023-05-14T18:21:39.206Z,13.40
2023-05-14T18:24:06.624Z,12.38
2023-05-14T18:26:34.621Z,12.55
2023-05-14T18:29:01.839Z,14.60
2023-05-14T18:31:29.073Z,15.32
2023-05-14T18:33:56.287Z,13.55
2023-05-14T18:36:23.534Z,14.50
2023-05-14T18:38:50.685Z,12.35
2023-05-14T18:41:17.872Z,12.77
2023-05-14T18:43:45.086Z,16.30
2023-05-14T18:46:12.466Z,14.98
2023-05-14T18:48:39.671Z,13.38
2023-05-14T18:51:07.112Z,17.02
2023-05-14T18:53:34.317Z,14.80
2023-05-14T18:56:01.542Z,21.30
2023-05-14T18:58:28.810Z,14.18
2023-05-14T19:00:58.443Z,12.27
2023-05-14T19:03:26.137Z,13.23
2023-05-14T19:05:54.287Z,15.07
2023-05-14T19:08:21.569Z,13.07
2023-05-14T19:10:48.768Z,17.83
2023-05-14T19:13:16.653Z,16.52
2023-05-14T19:15:44.121Z,11.85
2023-05-14T19:18:12.946Z,13.65
2023-05-14T19:20:40.186Z,15.45
2023-05-14T19:23:07.473Z,15.32
2023-05-14T19:25:34.675Z,13.90
2023-05-14T19:28:03.721Z,13.90
2023-05-14T19:30:31.028Z,22.38
2023-05-14T19:32:58.199Z,11.73
2023-05-14T19:35:25.630Z,13.32
2023-05-14T19:37:53.048Z,14.13
2023-05-14T19:40:20.321Z,15.52
2023-05-14T19:42:47.568Z,14.80
2023-05-14T19:45:14.751Z,14.77
2023-05-14T19:47:42.770Z,13.10
2023-05-14T19:50:10.237Z,11.52
2023-05-14T19:52:37.508Z,12.93
2023-05-14T19:55:04.893Z,15.52
2023-05-14T19:57:32.121Z,13.25
2023-05-14T19:59:59.228Z,14.38
2023-05-14T20:02:26.673Z,15.73
2023-05-14T20:04:56.627Z,15.02
2023-05-14T20:07:25.186Z,14.52
2023-05-14T20:14:46.553Z,14.63
2023-05-14T20:17:13.851Z,18.17
2023-05-14T20:19:41.292Z,15.73
2023-05-14T20:22:08.564Z,13.95
2023-05-14T20:24:35.784Z,13.90
2023-05-14T20:27:03.007Z,13.90
2023-05-14T20:29:30.278Z,14.48
2023-05-14T20:31:57.620Z,17.30
2023-05-14T20:34:27.116Z,14.48
2023-05-14T20:36:54.218Z,15.00
2023-05-14T20:39:21.369Z,12.25
2023-05-14T20:41:48.632Z,17.02
2023-05-14T20:44:19.153Z,16.50
2023-05-14T20:46:47.788Z,15.25
2023-05-14T20:49:15.002Z,13.18
2023-05-14T20:51:42.129Z,12.57
2023-05-14T20:54:09.307Z,14.38
2023-05-14T20:56:36.602Z,17.35
2023-05-14T20:59:03.876Z,16.38
2023-05-14T21:01:31.082Z,15.80
2023-05-14T21:03:58.520Z,13.27
2023-05-14T21:06:25.798Z,15.77
2023-05-14T21:08:55.529Z,16.88
2023-05-14T21:11:23.079Z,17.73
2023-05-14T21:13:50.341Z,18.33
2023-05-14T21:16:17.510Z,13.68
2023-05-14T21:18:44.929Z,15.55
2023-05-14T21:21:12.088Z,12.30
2023-05-14T21:23:39.320Z,14.50
2023-05-14T21:26:06.530Z,13.30
2023-05-14T21:28:33.730Z,17.15
2023-05-14T21:31:00.923Z,17.13
2023-05-14T21:33:28.220Z,14.02
2023-05-14T21:35:55.462Z,14.70
2023-05-14T21:38:22.577Z,17.10
2023-05-14T21:40:49.732Z,15.38
2023-05-14T21:43:16.873Z,16.85
2023-05-14T21:45:44.330Z,18.30
2023-05-14T21:48:11.517Z,15.40
2023-05-14T21:50:38.753Z,16.02
2023-05-14T21:53:05.866Z,16.08
2023-05-14T21:55:33.046Z,16.10
2023-05-14T21:58:00.236Z,14.85
2023-05-14T22:00:28.063Z,16.00
2023-05-14T22:02:55.277Z,16.40
2023-05-14T22:05:23.044Z,14.85
2023-05-14T22:07:50.602Z,17.55
2023-05-14T22:10:17.756Z,15.73
2023-05-14T22:12:45.568Z,18.13
2023-05-14T22:15:13.217Z,14.77
2023-05-14T22:17:40.414Z,12.50
2023-05-14T22:20:09.277Z,13.95
2023-05-14T22:22:36.749Z,14.85
2023-05-14T22:25:04.376Z,18.92
2023-05-14T22:27:32.136Z,15.85
2023-05-14T22:29:59.522Z,15.07
2023-05-14T22:32:26.838Z,18.25
2023-05-14T22:34:54.068Z,20.33
2023-05-14T22:37:21.290Z,16.60
2023-05-14T22:39:48.714Z,15.45
2023-05-14T22:42:15.834Z,17.42
2023-05-14T22:44:42.966Z,16.95
2023-05-14T22:47:10.231Z,15.50
2023-05-14T22:49:37.363Z,16.10
2023-05-14T22:52:04.782Z,17.25
2023-05-14T22:54:31.930Z,15.00
2023-05-14T22:56:59.086Z,17.85
2023-05-14T22:59:26.231Z,18.20
2023-05-14T23:01:53.481Z,15.98
2023-05-14T23:04:21.676Z,19.38
2023-05-14T23:06:48.868Z,21.65
2023-05-14T23:09:15.999Z,19.52
2023-05-14T23:11:43.130Z,22.63
2023-05-14T23:14:10.419Z,23.25
2023-05-14T23:16:37.578Z,20.70
2023-05-14T23:19:04.974Z,20.88
2023-05-14T23:21:33.116Z,22.45
2023-05-14T23:24:00.599Z,21.15
2023-05-14T23:26:27.807Z,21.52
2023-05-14T23:28:54.973Z,26.40
2023-05-14T23:31:22.205Z,23.33
2023-05-14T23:33:49.357Z,25.05
2023-05-14T23:36:16.519Z,20.58
2023-05-14T23:38:43.707Z,25.63
2023-05-14T23:41:11.021Z,24.80
2023-05-14T23:43:38.160Z,20.05
2023-05-14T23:46:05.405Z,23.33
2023-05-14T23:48:32.638Z,26.60
2023-05-14T23:50:59.767Z,25.55
2023-05-14T23:53:26.883Z,24.30
2023-05-14T23:55:53.967Z,22.73
2023-05-14T23:58:21.091Z,24.88
